sensor_id;sensor_type;location;lat;lon;timestamp;temperature;humidity
29203;DHT22;16245;51.170;4.884;2022-11-04T00:01:07;11.00;99.90
29203;DHT22;16245;51.170;4.884;2022-11-04T00:03:33;10.90;99.90
29203;DHT22;16245;51.170;4.884;2022-11-04T00:06:02;10.90;99.90
29203;DHT22;16245;51.170;4.884;2022-11-04T00:08:28;10.90;99.90
29203;DHT22;16245;51.170;4.884;2022-11-04T00:10:55;10.90;99.90
29203;DHT22;16245;51.170;4.884;2022-11-04T00:13:40;11.00;99.90
29203;DHT22;16245;51.170;4.884;2022-11-04T00:16:05;11.00;99.90
29203;DHT22;16245;51.170;4.884;2022-11-04T00:18:50;10.90;99.90
29203;DHT22;16245;51.170;4.884;2022-11-04T00:21:16;10.90;99.90
29203;DHT22;16245;51.170;4.884;2022-11-04T00:24:00;10.90;99.90
29203;DHT22;16245;51.170;4.884;2022-11-04T00:26:44;10.80;99.90
29203;DHT22;16245;51.170;4.884;2022-11-04T00:29:28;10.70;99.90
29203;DHT22;16245;51.170;4.884;2022-11-04T00:31:54;10.80;99.90
29203;DHT22;16245;51.170;4.884;2022-11-04T00:34:37;10.80;99.90
29203;DHT22;16245;51.170;4.884;2022-11-04T00:37:03;10.80;99.90
29203;DHT22;16245;51.170;4.884;2022-11-04T00:39:29;10.80;99.90
29203;DHT22;16245;51.170;4.884;2022-11-04T00:41:54;10.70;99.90
29203;DHT22;16245;51.170;4.884;2022-11-04T00:44:20;10.70;99.90
29203;DHT22;16245;51.170;4.884;2022-11-04T00:46:46;10.70;99.90
29203;DHT22;16245;51.170;4.884;2022-11-04T00:49:11;10.70;99.90
29203;DHT22;16245;51.170;4.884;2022-11-04T00:51:38;10.60;99.90
29203;DHT22;16245;51.170;4.884;2022-11-04T00:54:03;10.60;99.90
29203;DHT22;16245;51.170;4.884;2022-11-04T00:56:29;10.60;99.90
29203;DHT22;16245;51.170;4.884;2022-11-04T00:58:55;10.50;99.90
29203;DHT22;16245;51.170;4.884;2022-11-04T01:01:23;10.40;99.90
29203;DHT22;16245;51.170;4.884;2022-11-04T01:03:51;10.40;99.90
29203;DHT22;16245;51.170;4.884;2022-11-04T01:06:18;10.40;99.90
29203;DHT22;16245;51.170;4.884;2022-11-04T01:08:44;10.30;99.90
29203;DHT22;16245;51.170;4.884;2022-11-04T01:11:10;10.30;99.90
29203;DHT22;16245;51.170;4.884;2022-11-04T01:13:36;10.40;99.90
29203;DHT22;16245;51.170;4.884;2022-11-04T01:16:08;10.50;99.90
29203;DHT22;16245;51.170;4.884;2022-11-04T01:18:35;10.40;99.90
29203;DHT22;16245;51.170;4.884;2022-11-04T01:21:02;10.40;99.90
29203;DHT22;16245;51.170;4.884;2022-11-04T01:23:28;10.30;99.90
29203;DHT22;16245;51.170;4.884;2022-11-04T01:25:53;10.30;99.90
29203;DHT22;16245;51.170;4.884;2022-11-04T01:28:19;10.30;99.90
29203;DHT22;16245;51.170;4.884;2022-11-04T01:30:45;10.40;99.90
29203;DHT22;16245;51.170;4.884;2022-11-04T01:33:10;10.30;99.90
29203;DHT22;16245;51.170;4.884;2022-11-04T01:35:36;10.20;99.90
29203;DHT22;16245;51.170;4.884;2022-11-04T01:38:01;10.30;99.90
29203;DHT22;16245;51.170;4.884;2022-11-04T01:40:27;10.30;99.90
29203;DHT22;16245;51.170;4.884;2022-11-04T01:42:53;10.30;99.90
29203;DHT22;16245;51.170;4.884;2022-11-04T01:45:20;10.30;99.90
29203;DHT22;16245;51.170;4.884;2022-11-04T01:48:00;10.30;99.90
29203;DHT22;16245;51.170;4.884;2022-11-04T01:50:29;10.20;99.90
29203;DHT22;16245;51.170;4.884;2022-11-04T01:53:05;10.30;99.90
29203;DHT22;16245;51.170;4.884;2022-11-04T01:55:33;10.20;99.90
29203;DHT22;16245;51.170;4.884;2022-11-04T01:58:03;10.20;99.90
29203;DHT22;16245;51.170;4.884;2022-11-04T02:00:30;10.20;99.90
29203;DHT22;16245;51.170;4.884;2022-11-04T02:03:03;10.30;99.90
29203;DHT22;16245;51.170;4.884;2022-11-04T02:05:30;10.30;99.90
29203;DHT22;16245;51.170;4.884;2022-11-04T02:07:57;10.20;99.90
29203;DHT22;16245;51.170;4.884;2022-11-04T02:10:26;10.20;99.90
29203;DHT22;16245;51.170;4.884;2022-11-04T02:12:53;10.30;99.90
29203;DHT22;16245;51.170;4.884;2022-11-04T02:18:23;10.40;99.90
29203;DHT22;16245;51.170;4.884;2022-11-04T02:21:05;10.40;99.90
29203;DHT22;16245;51.170;4.884;2022-11-04T02:26:28;10.40;99.90
29203;DHT22;16245;51.170;4.884;2022-11-04T02:40:10;10.50;99.90
29203;DHT22;16245;51.170;4.884;2022-11-04T02:42:54;10.50;99.90
29203;DHT22;16245;51.170;4.884;2022-11-04T02:45:42;10.40;99.90
29203;DHT22;16245;51.170;4.884;2022-11-04T02:48:27;10.40;99.90
29203;DHT22;16245;51.170;4.884;2022-11-04T02:53:42;10.40;99.90
29203;DHT22;16245;51.170;4.884;2022-11-04T02:56:10;10.40;99.90
29203;DHT22;16245;51.170;4.884;2022-11-04T02:58:42;10.30;99.90
29203;DHT22;16245;51.170;4.884;2022-11-04T03:01:12;10.30;99.90
29203;DHT22;16245;51.170;4.884;2022-11-04T03:03:46;10.30;99.90
29203;DHT22;16245;51.170;4.884;2022-11-04T03:06:13;10.10;99.90
29203;DHT22;16245;51.170;4.884;2022-11-04T03:08:45;10.10;99.90
29203;DHT22;16245;51.170;4.884;2022-11-04T03:11:19;10.00;99.90
29203;DHT22;16245;51.170;4.884;2022-11-04T03:16:15;10.10;99.90
29203;DHT22;16245;51.170;4.884;2022-11-04T03:19:04;10.10;99.90
29203;DHT22;16245;51.170;4.884;2022-11-04T03:21:36;10.10;99.90
29203;DHT22;16245;51.170;4.884;2022-11-04T03:24:04;10.10;99.90
29203;DHT22;16245;51.170;4.884;2022-11-04T03:29:36;9.90;99.90
29203;DHT22;16245;51.170;4.884;2022-11-04T03:34:46;9.90;99.90
29203;DHT22;16245;51.170;4.884;2022-11-04T03:37:12;9.90;99.90
29203;DHT22;16245;51.170;4.884;2022-11-04T03:39:38;9.90;99.90
29203;DHT22;16245;51.170;4.884;2022-11-04T03:42:07;9.90;99.90
29203;DHT22;16245;51.170;4.884;2022-11-04T03:44:54;9.90;99.90
29203;DHT22;16245;51.170;4.884;2022-11-04T03:47:26;10.00;99.90
29203;DHT22;16245;51.170;4.884;2022-11-04T03:50:12;10.00;99.90
29203;DHT22;16245;51.170;4.884;2022-11-04T03:52:42;10.00;99.90
29203;DHT22;16245;51.170;4.884;2022-11-04T03:55:08;10.10;99.90
29203;DHT22;16245;51.170;4.884;2022-11-04T04:00:15;10.20;99.90
29203;DHT22;16245;51.170;4.884;2022-11-04T04:05:29;10.20;99.90
29203;DHT22;16245;51.170;4.884;2022-11-04T04:08:09;10.20;99.90
29203;DHT22;16245;51.170;4.884;2022-11-04T04:11:22;10.10;99.90
29203;DHT22;16245;51.170;4.884;2022-11-04T04:13:47;10.30;99.90
29203;DHT22;16245;51.170;4.884;2022-11-04T04:16:26;10.30;99.90
29203;DHT22;16245;51.170;4.884;2022-11-04T04:19:18;10.50;99.90
29203;DHT22;16245;51.170;4.884;2022-11-04T04:21:58;10.60;99.90
29203;DHT22;16245;51.170;4.884;2022-11-04T04:24:32;10.60;99.90
29203;DHT22;16245;51.170;4.884;2022-11-04T04:27:19;10.60;99.90
29203;DHT22;16245;51.170;4.884;2022-11-04T04:30:06;10.60;99.90
29203;DHT22;16245;51.170;4.884;2022-11-04T04:32:36;10.60;99.90
29203;DHT22;16245;51.170;4.884;2022-11-04T04:35:05;10.50;99.90
29203;DHT22;16245;51.170;4.884;2022-11-04T04:37:51;10.50;99.90
29203;DHT22;16245;51.170;4.884;2022-11-04T04:40:19;10.50;99.90
29203;DHT22;16245;51.170;4.884;2022-11-04T04:43:13;10.60;99.90
29203;DHT22;16245;51.170;4.884;2022-11-04T04:45:59;10.50;99.90
29203;DHT22;16245;51.170;4.884;2022-11-04T04:48:26;10.40;99.90
29203;DHT22;16245;51.170;4.884;2022-11-04T04:50:53;10.40;99.90
29203;DHT22;16245;51.170;4.884;2022-11-04T04:53:21;10.40;99.90
29203;DHT22;16245;51.170;4.884;2022-11-04T04:55:47;10.30;99.90
29203;DHT22;16245;51.170;4.884;2022-11-04T04:58:13;10.30;99.90
29203;DHT22;16245;51.170;4.884;2022-11-04T05:00:38;10.40;99.90
29203;DHT22;16245;51.170;4.884;2022-11-04T05:03:04;10.30;99.90
29203;DHT22;16245;51.170;4.884;2022-11-04T05:05:30;10.40;99.90
29203;DHT22;16245;51.170;4.884;2022-11-04T05:08:03;10.40;99.90
29203;DHT22;16245;51.170;4.884;2022-11-04T05:10:30;10.40;99.90
29203;DHT22;16245;51.170;4.884;2022-11-04T05:12:55;10.40;99.90
29203;DHT22;16245;51.170;4.884;2022-11-04T05:15:40;10.40;99.90
29203;DHT22;16245;51.170;4.884;2022-11-04T05:18:05;10.40;99.90
29203;DHT22;16245;51.170;4.884;2022-11-04T05:20:31;10.40;99.90
29203;DHT22;16245;51.170;4.884;2022-11-04T05:22:58;10.40;99.90
29203;DHT22;16245;51.170;4.884;2022-11-04T05:25:24;10.40;99.90
29203;DHT22;16245;51.170;4.884;2022-11-04T05:27:50;10.40;99.90
29203;DHT22;16245;51.170;4.884;2022-11-04T05:30:16;10.40;99.90
29203;DHT22;16245;51.170;4.884;2022-11-04T05:32:41;10.30;99.90
29203;DHT22;16245;51.170;4.884;2022-11-04T05:35:07;10.30;99.90
29203;DHT22;16245;51.170;4.884;2022-11-04T05:37:33;10.40;99.90
29203;DHT22;16245;51.170;4.884;2022-11-04T05:39:58;10.30;99.90
29203;DHT22;16245;51.170;4.884;2022-11-04T05:42:24;10.30;99.90
29203;DHT22;16245;51.170;4.884;2022-11-04T05:44:50;10.30;99.90
29203;DHT22;16245;51.170;4.884;2022-11-04T05:47:15;10.30;99.90
29203;DHT22;16245;51.170;4.884;2022-11-04T05:49:41;10.30;99.90
29203;DHT22;16245;51.170;4.884;2022-11-04T05:52:07;10.20;99.90
29203;DHT22;16245;51.170;4.884;2022-11-04T05:54:32;10.20;99.90
29203;DHT22;16245;51.170;4.884;2022-11-04T05:56:58;10.30;99.90
29203;DHT22;16245;51.170;4.884;2022-11-04T05:59:23;10.20;99.90
29203;DHT22;16245;51.170;4.884;2022-11-04T06:01:49;10.30;99.90
29203;DHT22;16245;51.170;4.884;2022-11-04T06:04:16;10.20;99.90
29203;DHT22;16245;51.170;4.884;2022-11-04T06:06:43;10.20;99.90
29203;DHT22;16245;51.170;4.884;2022-11-04T06:09:09;10.30;99.90
29203;DHT22;16245;51.170;4.884;2022-11-04T06:11:35;10.40;99.90
29203;DHT22;16245;51.170;4.884;2022-11-04T06:14:02;10.40;99.90
29203;DHT22;16245;51.170;4.884;2022-11-04T06:16:28;10.30;99.90
29203;DHT22;16245;51.170;4.884;2022-11-04T06:18:53;10.20;99.90
29203;DHT22;16245;51.170;4.884;2022-11-04T06:21:23;10.30;99.90
29203;DHT22;16245;51.170;4.884;2022-11-04T06:23:50;10.30;99.90
29203;DHT22;16245;51.170;4.884;2022-11-04T06:26:16;10.30;99.90
29203;DHT22;16245;51.170;4.884;2022-11-04T06:28:42;10.40;99.90
29203;DHT22;16245;51.170;4.884;2022-11-04T06:31:09;10.40;99.90
29203;DHT22;16245;51.170;4.884;2022-11-04T06:33:36;10.50;99.90
29203;DHT22;16245;51.170;4.884;2022-11-04T06:36:03;10.50;99.90
29203;DHT22;16245;51.170;4.884;2022-11-04T06:38:31;10.50;99.90
29203;DHT22;16245;51.170;4.884;2022-11-04T06:40:57;10.50;99.90
29203;DHT22;16245;51.170;4.884;2022-11-04T06:43:23;10.60;99.90
29203;DHT22;16245;51.170;4.884;2022-11-04T06:45:55;10.60;99.90
29203;DHT22;16245;51.170;4.884;2022-11-04T06:48:21;10.60;99.90
29203;DHT22;16245;51.170;4.884;2022-11-04T06:50:47;10.60;99.90
29203;DHT22;16245;51.170;4.884;2022-11-04T06:53:13;10.50;99.90
29203;DHT22;16245;51.170;4.884;2022-11-04T06:55:38;10.60;99.90
29203;DHT22;16245;51.170;4.884;2022-11-04T06:58:04;10.50;99.90
29203;DHT22;16245;51.170;4.884;2022-11-04T07:00:30;10.60;99.90
29203;DHT22;16245;51.170;4.884;2022-11-04T07:02:56;10.60;99.90
29203;DHT22;16245;51.170;4.884;2022-11-04T07:05:21;10.60;99.90
29203;DHT22;16245;51.170;4.884;2022-11-04T07:07:47;10.70;99.90
29203;DHT22;16245;51.170;4.884;2022-11-04T07:10:13;10.70;99.90
29203;DHT22;16245;51.170;4.884;2022-11-04T07:12:38;10.80;99.90
29203;DHT22;16245;51.170;4.884;2022-11-04T07:15:04;10.80;99.90
29203;DHT22;16245;51.170;4.884;2022-11-04T07:17:30;10.70;99.90
29203;DHT22;16245;51.170;4.884;2022-11-04T07:19:56;10.80;99.90
29203;DHT22;16245;51.170;4.884;2022-11-04T07:22:21;10.70;99.90
29203;DHT22;16245;51.170;4.884;2022-11-04T07:24:47;10.80;99.90
29203;DHT22;16245;51.170;4.884;2022-11-04T07:27:14;10.90;99.90
29203;DHT22;16245;51.170;4.884;2022-11-04T07:29:39;10.90;99.90
29203;DHT22;16245;51.170;4.884;2022-11-04T07:32:05;10.90;99.90
29203;DHT22;16245;51.170;4.884;2022-11-04T07:34:31;11.00;99.90
29203;DHT22;16245;51.170;4.884;2022-11-04T07:36:56;11.10;99.90
29203;DHT22;16245;51.170;4.884;2022-11-04T07:39:22;11.20;99.90
29203;DHT22;16245;51.170;4.884;2022-11-04T07:41:47;11.20;99.90
29203;DHT22;16245;51.170;4.884;2022-11-04T07:44:13;11.30;99.90
29203;DHT22;16245;51.170;4.884;2022-11-04T07:46:39;11.30;99.90
29203;DHT22;16245;51.170;4.884;2022-11-04T07:49:05;11.30;99.90
29203;DHT22;16245;51.170;4.884;2022-11-04T07:51:33;11.40;99.90
29203;DHT22;16245;51.170;4.884;2022-11-04T07:53:59;11.40;99.90
29203;DHT22;16245;51.170;4.884;2022-11-04T07:56:26;11.40;99.90
29203;DHT22;16245;51.170;4.884;2022-11-04T07:58:51;11.40;99.90
29203;DHT22;16245;51.170;4.884;2022-11-04T08:01:20;11.40;99.90
29203;DHT22;16245;51.170;4.884;2022-11-04T08:03:48;11.40;99.90
29203;DHT22;16245;51.170;4.884;2022-11-04T08:06:15;11.40;99.90
29203;DHT22;16245;51.170;4.884;2022-11-04T08:08:41;11.50;99.90
29203;DHT22;16245;51.170;4.884;2022-11-04T08:11:16;11.50;99.90
29203;DHT22;16245;51.170;4.884;2022-11-04T08:13:42;11.50;99.90
29203;DHT22;16245;51.170;4.884;2022-11-04T08:16:14;11.50;99.90
29203;DHT22;16245;51.170;4.884;2022-11-04T08:18:41;11.50;99.90
29203;DHT22;16245;51.170;4.884;2022-11-04T08:21:07;11.60;99.90
29203;DHT22;16245;51.170;4.884;2022-11-04T08:23:33;11.60;99.90
29203;DHT22;16245;51.170;4.884;2022-11-04T08:25:59;11.70;99.90
29203;DHT22;16245;51.170;4.884;2022-11-04T08:28:26;11.60;99.90
29203;DHT22;16245;51.170;4.884;2022-11-04T08:31:03;11.70;99.90
29203;DHT22;16245;51.170;4.884;2022-11-04T08:33:30;11.80;99.90
29203;DHT22;16245;51.170;4.884;2022-11-04T08:36:00;11.80;99.90
29203;DHT22;16245;51.170;4.884;2022-11-04T08:38:29;11.90;99.90
29203;DHT22;16245;51.170;4.884;2022-11-04T08:40:58;12.10;99.90
29203;DHT22;16245;51.170;4.884;2022-11-04T08:43:24;12.40;99.90
29203;DHT22;16245;51.170;4.884;2022-11-04T08:45:50;12.40;99.90
29203;DHT22;16245;51.170;4.884;2022-11-04T08:48:16;12.40;99.90
29203;DHT22;16245;51.170;4.884;2022-11-04T08:50:42;12.60;99.90
29203;DHT22;16245;51.170;4.884;2022-11-04T08:53:08;12.70;99.90
29203;DHT22;16245;51.170;4.884;2022-11-04T08:55:34;12.90;99.90
29203;DHT22;16245;51.170;4.884;2022-11-04T08:58:01;13.00;99.90
29203;DHT22;16245;51.170;4.884;2022-11-04T09:00:27;13.10;99.90
29203;DHT22;16245;51.170;4.884;2022-11-04T09:02:53;13.20;99.90
29203;DHT22;16245;51.170;4.884;2022-11-04T09:05:20;13.40;99.90
29203;DHT22;16245;51.170;4.884;2022-11-04T09:07:52;13.40;99.90
29203;DHT22;16245;51.170;4.884;2022-11-04T09:10:17;13.40;99.90
29203;DHT22;16245;51.170;4.884;2022-11-04T09:12:44;13.40;99.90
29203;DHT22;16245;51.170;4.884;2022-11-04T09:15:10;13.30;99.90
29203;DHT22;16245;51.170;4.884;2022-11-04T09:17:36;13.20;99.90
29203;DHT22;16245;51.170;4.884;2022-11-04T09:20:01;13.10;99.90
29203;DHT22;16245;51.170;4.884;2022-11-04T09:22:27;13.00;99.90
29203;DHT22;16245;51.170;4.884;2022-11-04T09:24:53;12.80;99.90
29203;DHT22;16245;51.170;4.884;2022-11-04T09:27:18;12.70;99.90
29203;DHT22;16245;51.170;4.884;2022-11-04T09:29:44;12.70;99.90
29203;DHT22;16245;51.170;4.884;2022-11-04T09:32:10;12.80;99.90
29203;DHT22;16245;51.170;4.884;2022-11-04T09:34:36;12.80;99.90
29203;DHT22;16245;51.170;4.884;2022-11-04T09:37:02;12.90;99.90
29203;DHT22;16245;51.170;4.884;2022-11-04T09:39:27;13.00;99.90
29203;DHT22;16245;51.170;4.884;2022-11-04T09:42:26;13.00;99.90
29203;DHT22;16245;51.170;4.884;2022-11-04T09:45:14;13.20;99.90
29203;DHT22;16245;51.170;4.884;2022-11-04T09:47:45;13.30;99.90
29203;DHT22;16245;51.170;4.884;2022-11-04T09:50:23;13.20;99.90
29203;DHT22;16245;51.170;4.884;2022-11-04T09:53:11;13.20;99.90
29203;DHT22;16245;51.170;4.884;2022-11-04T09:55:44;13.40;99.90
29203;DHT22;16245;51.170;4.884;2022-11-04T09:58:12;13.50;99.90
29203;DHT22;16245;51.170;4.884;2022-11-04T10:00:40;13.40;99.90
29203;DHT22;16245;51.170;4.884;2022-11-04T10:06:03;13.40;99.90
29203;DHT22;16245;51.170;4.884;2022-11-04T10:11:44;13.10;99.90
29203;DHT22;16245;51.170;4.884;2022-11-04T10:14:34;13.10;99.90
29203;DHT22;16245;51.170;4.884;2022-11-04T10:20:09;13.30;99.90
29203;DHT22;16245;51.170;4.884;2022-11-04T10:22:56;13.50;99.90
29203;DHT22;16245;51.170;4.884;2022-11-04T10:25:35;13.70;99.90
29203;DHT22;16245;51.170;4.884;2022-11-04T10:28:03;13.90;99.90
29203;DHT22;16245;51.170;4.884;2022-11-04T10:30:30;14.00;99.90
29203;DHT22;16245;51.170;4.884;2022-11-04T10:33:02;14.10;99.90
29203;DHT22;16245;51.170;4.884;2022-11-04T10:35:35;14.20;99.90
29203;DHT22;16245;51.170;4.884;2022-11-04T10:40:49;14.40;99.90
29203;DHT22;16245;51.170;4.884;2022-11-04T10:43:21;14.50;99.90
29203;DHT22;16245;51.170;4.884;2022-11-04T10:46:17;14.60;99.90
29203;DHT22;16245;51.170;4.884;2022-11-04T10:48:50;14.80;99.90
29203;DHT22;16245;51.170;4.884;2022-11-04T10:51:19;15.00;99.90
29203;DHT22;16245;51.170;4.884;2022-11-04T10:53:49;15.00;99.90
29203;DHT22;16245;51.170;4.884;2022-11-04T10:56:39;15.20;99.90
29203;DHT22;16245;51.170;4.884;2022-11-04T10:59:26;15.30;99.90
29203;DHT22;16245;51.170;4.884;2022-11-04T11:01:58;15.30;99.90
29203;DHT22;16245;51.170;4.884;2022-11-04T11:04:30;15.40;99.90
29203;DHT22;16245;51.170;4.884;2022-11-04T11:06:59;15.50;99.90
29203;DHT22;16245;51.170;4.884;2022-11-04T11:09:34;15.50;99.90
29203;DHT22;16245;51.170;4.884;2022-11-04T11:12:05;15.60;99.90
29203;DHT22;16245;51.170;4.884;2022-11-04T11:14:42;15.60;99.90
29203;DHT22;16245;51.170;4.884;2022-11-04T11:22:42;15.70;99.90
29203;DHT22;16245;51.170;4.884;2022-11-04T11:25:31;15.60;99.90
29203;DHT22;16245;51.170;4.884;2022-11-04T11:28:19;15.60;99.90
29203;DHT22;16245;51.170;4.884;2022-11-04T11:33:28;15.60;99.90
29203;DHT22;16245;51.170;4.884;2022-11-04T11:38:49;15.40;99.90
29203;DHT22;16245;51.170;4.884;2022-11-04T11:41:16;15.30;99.90
29203;DHT22;16245;51.170;4.884;2022-11-04T11:43:49;15.20;99.90
29203;DHT22;16245;51.170;4.884;2022-11-04T11:46:24;15.10;99.90
29203;DHT22;16245;51.170;4.884;2022-11-04T11:48:55;15.10;99.90
29203;DHT22;16245;51.170;4.884;2022-11-04T11:51:39;15.20;99.90
29203;DHT22;16245;51.170;4.884;2022-11-04T11:56:41;15.00;99.90
29203;DHT22;16245;51.170;4.884;2022-11-04T11:59:28;15.00;99.90
29203;DHT22;16245;51.170;4.884;2022-11-04T12:02:13;14.60;99.90
29203;DHT22;16245;51.170;4.884;2022-11-04T12:04:41;14.60;99.90
29203;DHT22;16245;51.170;4.884;2022-11-04T12:12:54;15.10;99.90
29203;DHT22;16245;51.170;4.884;2022-11-04T12:21:17;15.20;99.90
29203;DHT22;16245;51.170;4.884;2022-11-04T12:23:54;15.20;99.90
29203;DHT22;16245;51.170;4.884;2022-11-04T12:37:36;15.10;99.90
29203;DHT22;16245;51.170;4.884;2022-11-04T12:40:22;15.00;99.90
29203;DHT22;16245;51.170;4.884;2022-11-04T12:43:23;15.00;99.90
29203;DHT22;16245;51.170;4.884;2022-11-04T12:53:58;15.20;99.90
29203;DHT22;16245;51.170;4.884;2022-11-04T12:56:36;15.20;99.90
29203;DHT22;16245;51.170;4.884;2022-11-04T13:02:26;15.40;99.90
29203;DHT22;16245;51.170;4.884;2022-11-04T13:07:30;15.60;99.90
29203;DHT22;16245;51.170;4.884;2022-11-04T13:13:05;15.50;99.90
29203;DHT22;16245;51.170;4.884;2022-11-04T13:15:45;15.50;99.90
29203;DHT22;16245;51.170;4.884;2022-11-04T13:18:17;15.60;99.90
29203;DHT22;16245;51.170;4.884;2022-11-04T13:21:12;15.80;99.90
29203;DHT22;16245;51.170;4.884;2022-11-04T13:23:49;15.90;99.90
29203;DHT22;16245;51.170;4.884;2022-11-04T13:26:16;16.00;99.90
29203;DHT22;16245;51.170;4.884;2022-11-04T13:28:44;16.20;99.90
29203;DHT22;16245;51.170;4.884;2022-11-04T13:31:29;16.30;99.90
29203;DHT22;16245;51.170;4.884;2022-11-04T13:39:22;16.20;99.90
29203;DHT22;16245;51.170;4.884;2022-11-04T13:42:14;16.00;99.90
29203;DHT22;16245;51.170;4.884;2022-11-04T13:44:46;16.00;99.90
29203;DHT22;16245;51.170;4.884;2022-11-04T13:47:21;16.00;99.90
29203;DHT22;16245;51.170;4.884;2022-11-04T13:49:53;15.90;99.90
29203;DHT22;16245;51.170;4.884;2022-11-04T13:52:27;15.90;99.90
29203;DHT22;16245;51.170;4.884;2022-11-04T13:54:59;15.80;99.90
29203;DHT22;16245;51.170;4.884;2022-11-04T13:57:29;15.80;99.90
29203;DHT22;16245;51.170;4.884;2022-11-04T14:02:53;15.70;99.90
29203;DHT22;16245;51.170;4.884;2022-11-04T14:18:38;14.00;99.90
29203;DHT22;16245;51.170;4.884;2022-11-04T14:21:12;13.80;99.90
29203;DHT22;16245;51.170;4.884;2022-11-04T14:23:42;13.70;99.90
29203;DHT22;16245;51.170;4.884;2022-11-04T14:26:17;13.70;99.90
29203;DHT22;16245;51.170;4.884;2022-11-04T14:28:46;13.90;99.90
29203;DHT22;16245;51.170;4.884;2022-11-04T14:31:37;13.90;99.90
29203;DHT22;16245;51.170;4.884;2022-11-04T14:34:04;13.80;99.90
29203;DHT22;16245;51.170;4.884;2022-11-04T14:36:37;13.80;99.90
29203;DHT22;16245;51.170;4.884;2022-11-04T14:39:20;13.70;99.90
29203;DHT22;16245;51.170;4.884;2022-11-04T14:42:00;13.80;99.90
29203;DHT22;16245;51.170;4.884;2022-11-04T14:47:45;13.70;99.90
29203;DHT22;16245;51.170;4.884;2022-11-04T14:50:20;13.70;99.90
29203;DHT22;16245;51.170;4.884;2022-11-04T14:52:59;13.60;99.90
29203;DHT22;16245;51.170;4.884;2022-11-04T14:55:29;13.60;99.90
29203;DHT22;16245;51.170;4.884;2022-11-04T14:57:58;13.40;99.90
29203;DHT22;16245;51.170;4.884;2022-11-04T15:05:36;13.30;99.90
29203;DHT22;16245;51.170;4.884;2022-11-04T15:11:23;13.30;99.90
29203;DHT22;16245;51.170;4.884;2022-11-04T15:14:25;13.30;99.90
29203;DHT22;16245;51.170;4.884;2022-11-04T15:16:58;13.30;99.90
29203;DHT22;16245;51.170;4.884;2022-11-04T15:19:33;13.20;99.90
29203;DHT22;16245;51.170;4.884;2022-11-04T15:22:04;13.20;99.90
29203;DHT22;16245;51.170;4.884;2022-11-04T15:24:31;13.10;99.90
29203;DHT22;16245;51.170;4.884;2022-11-04T15:27:01;13.00;99.90
29203;DHT22;16245;51.170;4.884;2022-11-04T15:29:27;13.00;99.90
29203;DHT22;16245;51.170;4.884;2022-11-04T15:32:04;12.80;99.90
29203;DHT22;16245;51.170;4.884;2022-11-04T15:34:30;12.60;99.90
29203;DHT22;16245;51.170;4.884;2022-11-04T15:37:00;12.50;99.90
29203;DHT22;16245;51.170;4.884;2022-11-04T15:39:39;12.50;99.90
29203;DHT22;16245;51.170;4.884;2022-11-04T15:42:22;12.30;99.90
29203;DHT22;16245;51.170;4.884;2022-11-04T15:45:38;12.20;99.90
29203;DHT22;16245;51.170;4.884;2022-11-04T15:48:45;12.10;99.90
29203;DHT22;16245;51.170;4.884;2022-11-04T15:51:24;12.00;99.90
29203;DHT22;16245;51.170;4.884;2022-11-04T15:53:57;12.00;99.90
29203;DHT22;16245;51.170;4.884;2022-11-04T15:56:26;11.90;99.90
29203;DHT22;16245;51.170;4.884;2022-11-04T15:58:53;11.80;99.90
29203;DHT22;16245;51.170;4.884;2022-11-04T16:01:20;11.90;99.90
29203;DHT22;16245;51.170;4.884;2022-11-04T16:03:55;11.80;99.90
29203;DHT22;16245;51.170;4.884;2022-11-04T16:06:40;11.80;99.90
29203;DHT22;16245;51.170;4.884;2022-11-04T16:11:38;11.70;99.90
29203;DHT22;16245;51.170;4.884;2022-11-04T16:14:24;11.70;99.90
29203;DHT22;16245;51.170;4.884;2022-11-04T16:16:52;11.70;99.90
29203;DHT22;16245;51.170;4.884;2022-11-04T16:19:24;11.70;99.90
29203;DHT22;16245;51.170;4.884;2022-11-04T16:22:05;11.70;99.90
29203;DHT22;16245;51.170;4.884;2022-11-04T16:24:36;11.80;99.90
29203;DHT22;16245;51.170;4.884;2022-11-04T16:27:08;11.70;99.90
29203;DHT22;16245;51.170;4.884;2022-11-04T16:29:36;11.60;99.90
29203;DHT22;16245;51.170;4.884;2022-11-04T16:34:36;11.50;99.90
29203;DHT22;16245;51.170;4.884;2022-11-04T16:37:03;11.50;99.90
29203;DHT22;16245;51.170;4.884;2022-11-04T16:39:29;11.50;99.90
29203;DHT22;16245;51.170;4.884;2022-11-04T16:41:55;11.50;99.90
29203;DHT22;16245;51.170;4.884;2022-11-04T16:44:22;11.40;99.90
29203;DHT22;16245;51.170;4.884;2022-11-04T16:46:49;11.50;99.90
29203;DHT22;16245;51.170;4.884;2022-11-04T16:49:17;11.40;99.90
29203;DHT22;16245;51.170;4.884;2022-11-04T16:51:43;11.50;99.90
29203;DHT22;16245;51.170;4.884;2022-11-04T16:54:09;11.40;99.90
29203;DHT22;16245;51.170;4.884;2022-11-04T16:56:36;11.40;99.90
29203;DHT22;16245;51.170;4.884;2022-11-04T16:59:02;11.40;99.90
29203;DHT22;16245;51.170;4.884;2022-11-04T17:01:28;11.30;99.90
29203;DHT22;16245;51.170;4.884;2022-11-04T17:03:53;11.30;99.90
29203;DHT22;16245;51.170;4.884;2022-11-04T17:06:19;11.30;99.90
29203;DHT22;16245;51.170;4.884;2022-11-04T17:08:46;11.30;99.90
29203;DHT22;16245;51.170;4.884;2022-11-04T17:11:11;11.30;99.90
29203;DHT22;16245;51.170;4.884;2022-11-04T17:13:37;11.30;99.90
29203;DHT22;16245;51.170;4.884;2022-11-04T17:16:05;11.30;99.90
29203;DHT22;16245;51.170;4.884;2022-11-04T17:18:32;11.20;99.90
29203;DHT22;16245;51.170;4.884;2022-11-04T17:21:00;11.20;99.90
29203;DHT22;16245;51.170;4.884;2022-11-04T17:23:27;11.10;99.90
29203;DHT22;16245;51.170;4.884;2022-11-04T17:25:52;11.10;99.90
29203;DHT22;16245;51.170;4.884;2022-11-04T17:28:18;11.00;99.90
29203;DHT22;16245;51.170;4.884;2022-11-04T17:30:44;11.00;99.90
29203;DHT22;16245;51.170;4.884;2022-11-04T17:33:14;11.00;99.90
29203;DHT22;16245;51.170;4.884;2022-11-04T17:35:42;11.00;99.90
29203;DHT22;16245;51.170;4.884;2022-11-04T17:38:12;11.00;99.90
29203;DHT22;16245;51.170;4.884;2022-11-04T17:40:38;11.00;99.90
29203;DHT22;16245;51.170;4.884;2022-11-04T17:43:23;10.90;99.90
29203;DHT22;16245;51.170;4.884;2022-11-04T17:46:07;10.80;99.90
29203;DHT22;16245;51.170;4.884;2022-11-04T17:48:52;10.60;99.90
29203;DHT22;16245;51.170;4.884;2022-11-04T17:51:17;10.50;99.90
29203;DHT22;16245;51.170;4.884;2022-11-04T17:53:43;10.50;99.90
29203;DHT22;16245;51.170;4.884;2022-11-04T17:56:19;10.60;99.90
29203;DHT22;16245;51.170;4.884;2022-11-04T17:58:46;10.60;99.90
29203;DHT22;16245;51.170;4.884;2022-11-04T18:01:13;10.60;99.90
29203;DHT22;16245;51.170;4.884;2022-11-04T18:03:40;10.60;99.90
29203;DHT22;16245;51.170;4.884;2022-11-04T18:06:07;10.60;99.90
29203;DHT22;16245;51.170;4.884;2022-11-04T18:08:33;10.50;99.90
29203;DHT22;16245;51.170;4.884;2022-11-04T18:11:00;10.50;99.90